Time;durP1;ratioP1;P1;durP2;ratioP2;P2;SDS_P1;SDS_P2;PMS_P1;PMS_P2;Temp;Humidity;BMP_temperature;BMP_pressure;BME280_temperature;BME280_humidity;BME280_pressure;Samples;Min_cycle;Max_cycle;Signal;HPM_P1;HPM_P2
2022/04/14 04:22:33;;;;;;;8.63;5.30;;;;;;;9.61;100.00;100469.84;5129794;27;20116;-73
2022/04/14 04:24:59;;;;;;;18.05;6.78;;;;;;;9.48;100.00;100463.16;5111422;28;20035;-73
2022/04/14 04:27:26;;;;;;;12.40;6.57;;;;;;;9.58;100.00;100472.81;5129793;28;20068;-73
2022/04/14 04:29:51;;;;;;;11.50;6.85;;;;;;;9.58;100.00;100475.47;5129993;28;20127;-73
2022/04/14 04:32:18;;;;;;;13.70;7.43;;;;;;;9.64;100.00;100473.00;5129661;28;20114;-73
2022/04/14 04:34:43;;;;;;;13.02;7.72;;;;;;;9.59;100.00;100480.66;5130466;28;20046;-74
2022/04/14 04:37:09;;;;;;;13.00;6.50;;;;;;;9.59;100.00;100485.97;5129839;27;20031;-73
2022/04/14 04:39:35;;;;;;;12.95;6.82;;;;;;;9.57;100.00;100476.47;5130235;28;20126;-73
2022/04/14 04:42:01;;;;;;;12.27;7.20;;;;;;;9.63;100.00;100481.13;5128128;28;20032;-73
2022/04/14 04:44:26;;;;;;;9.20;5.70;;;;;;;9.67;100.00;100490.47;5128386;28;20107;-73
2022/04/14 04:46:52;;;;;;;11.93;6.53;;;;;;;9.66;100.00;100489.66;5129492;28;20031;-73
2022/04/14 04:49:17;;;;;;;11.88;6.93;;;;;;;9.66;100.00;100496.78;5129551;27;20438;-74
2022/04/14 04:51:43;;;;;;;12.55;6.80;;;;;;;9.64;100.00;100496.09;5128216;28;20031;-73
2022/04/14 04:54:09;;;;;;;10.40;6.20;;;;;;;9.67;100.00;100495.78;5129856;28;20111;-74
2022/04/14 04:56:35;;;;;;;13.27;7.53;;;;;;;9.68;100.00;100503.59;5129429;28;20475;-74
2022/04/14 04:59:02;;;;;;;14.60;6.45;;;;;;;9.71;100.00;100505.09;5129414;28;20122;-74
2022/04/14 05:01:28;;;;;;;13.90;6.50;;;;;;;9.72;100.00;100496.16;5111044;28;20050;-74
2022/04/14 05:03:54;;;;;;;9.02;5.93;;;;;;;9.77;100.00;100499.97;5129090;28;20476;-74
2022/04/14 05:06:20;;;;;;;12.55;6.93;;;;;;;9.79;99.77;100497.16;5129238;28;20038;-73
2022/04/14 05:08:47;;;;;;;14.27;7.20;;;;;;;9.81;100.00;100494.34;5128046;28;20027;-74
2022/04/14 05:11:13;;;;;;;12.13;6.95;;;;;;;9.80;100.00;100493.50;5129309;28;20031;-74
2022/04/14 05:13:39;;;;;;;12.30;6.93;;;;;;;9.84;100.00;100499.31;5128600;28;20043;-73
2022/04/14 05:16:06;;;;;;;11.25;6.47;;;;;;;9.84;100.00;100502.81;5127728;28;20172;-73
2022/04/14 05:18:33;;;;;;;12.85;7.82;;;;;;;9.86;100.00;100503.50;5132009;28;20035;-73
2022/04/14 05:20:58;;;;;;;11.52;7.03;;;;;;;9.90;100.00;100504.00;5128711;28;20032;-73
2022/04/14 05:23:24;;;;;;;10.68;6.82;;;;;;;9.90;100.00;100512.81;5128649;28;20514;-73
2022/04/14 05:25:50;;;;;;;13.55;7.60;;;;;;;9.95;100.00;100522.97;5128816;28;20445;-74
2022/04/14 05:28:15;;;;;;;15.60;7.70;;;;;;;10.00;100.00;100523.31;5128750;27;20050;-73
2022/04/14 05:30:41;;;;;;;14.63;7.13;;;;;;;10.00;100.00;100516.19;5128749;28;20042;-73
2022/04/14 05:33:10;;;;;;;17.88;7.75;;;;;;;10.11;100.00;100522.19;5119253;28;20039;-73
2022/04/14 05:35:40;;;;;;;9.43;6.20;;;;;;;10.16;100.00;100519.84;5114869;28;20093;-73
2022/04/14 05:38:06;;;;;;;10.50;6.20;;;;;;;10.24;99.92;100527.91;5115038;28;20391;-73
2022/04/14 05:40:32;;;;;;;15.60;6.90;;;;;;;10.32;99.39;100517.25;5114789;28;20123;-73
2022/04/14 05:42:58;;;;;;;10.77;7.47;;;;;;;10.43;99.71;100522.28;5114490;28;20111;-71
2022/04/14 05:45:23;;;;;;;17.90;8.73;;;;;;;10.51;98.92;100516.94;5113505;28;20031;-71
2022/04/14 05:47:49;;;;;;;14.80;7.30;;;;;;;10.60;98.91;100525.75;5114745;28;20033;-71
2022/04/14 05:50:15;;;;;;;12.13;7.18;;;;;;;10.71;98.39;100529.94;5114730;28;20054;-71
2022/04/14 05:52:41;;;;;;;16.48;7.72;;;;;;;10.81;98.03;100528.75;5114324;28;20507;-70
2022/04/14 05:55:07;;;;;;;12.77;7.72;;;;;;;10.92;97.28;100532.91;5114583;28;20477;-71
2022/04/14 05:57:33;;;;;;;12.30;8.00;;;;;;;11.03;96.59;100537.88;5114436;28;20038;-70
2022/04/14 05:59:58;;;;;;;13.73;7.20;;;;;;;11.13;95.55;100537.69;5114423;28;20461;-70
2022/04/14 06:02:24;;;;;;;13.63;8.10;;;;;;;11.26;95.35;100539.84;5114117;28;20123;-70
2022/04/14 06:04:50;;;;;;;11.07;7.65;;;;;;;11.38;96.37;100544.63;5114310;28;20416;-71
2022/04/14 06:07:16;;;;;;;13.32;8.38;;;;;;;11.47;95.52;100550.75;5114346;28;20089;-72
2022/04/14 06:09:41;;;;;;;22.45;9.32;;;;;;;11.61;94.34;100550.06;5114377;28;20086;-71
2022/04/14 06:12:08;;;;;;;15.63;8.30;;;;;;;11.71;95.81;100547.19;5113906;28;20036;-71
2022/04/14 06:14:33;;;;;;;15.43;8.30;;;;;;;11.84;95.63;100542.16;5112931;28;20039;-75
2022/04/14 06:17:00;;;;;;;17.08;9.27;;;;;;;11.89;93.64;100538.97;5112934;28;20502;-73
2022/04/14 06:19:26;;;;;;;24.63;9.68;;;;;;;12.04;92.44;100547.88;5114172;27;20035;-74
2022/04/14 06:21:51;;;;;;;14.10;8.13;;;;;;;12.20;92.00;100555.81;5103486;27;20036;-72
2022/04/14 06:24:17;;;;;;;13.00;7.82;;;;;;;12.38;93.13;100554.69;5113947;28;20027;-73
2022/04/14 06:26:43;;;;;;;14.50;8.43;;;;;;;12.51;92.23;100549.59;5113662;28;20110;-73
2022/04/14 06:29:09;;;;;;;14.23;8.40;;;;;;;12.65;88.85;100559.53;5113832;28;20120;-75
2022/04/14 06:31:35;;;;;;;17.00;8.48;;;;;;;12.80;88.91;100561.41;5113224;28;20032;-74
2022/04/14 06:34:02;;;;;;;16.33;8.27;;;;;;;12.92;87.57;100557.28;5113477;28;20035;-75
2022/04/14 06:36:28;;;;;;;14.13;8.18;;;;;;;13.00;87.24;100555.38;5113632;28;20460;-74
2022/04/14 06:38:53;;;;;;;16.63;8.60;;;;;;;13.10;88.47;100563.13;5095412;28;20066;-74
2022/04/14 06:41:19;;;;;;;13.88;8.05;;;;;;;13.25;89.65;100566.69;5113136;28;20046;-74
2022/04/14 06:43:49;;;;;;;12.95;8.48;;;;;;;13.40;87.44;100568.53;5112069;28;20479;-74
2022/04/14 06:46:18;;;;;;;22.23;9.23;;;;;;;13.50;86.02;100559.25;5111833;28;20120;-75
2022/04/14 06:48:44;;;;;;;13.68;8.65;;;;;;;13.67;84.96;100554.50;5113633;28;20419;-76
2022/04/14 06:51:11;;;;;;;14.70;9.18;;;;;;;13.80;84.99;100559.22;5111913;28;20039;-75
2022/04/14 06:53:38;;;;;;;21.27;9.65;;;;;;;13.97;84.80;100562.53;5112515;27;20066;-75
2022/04/14 06:56:05;;;;;;;17.25;9.90;;;;;;;14.10;84.70;100560.00;5113231;28;20045;-75
2022/04/14 06:58:30;;;;;;;22.50;10.70;;;;;;;14.23;84.40;100570.88;5095138;28;20427;-75
2022/04/14 07:00:56;;;;;;;17.85;10.88;;;;;;;14.33;82.25;100560.66;5113244;28;20346;-73
2022/04/14 07:03:26;;;;;;;22.27;10.68;;;;;;;14.47;82.78;100563.50;5111221;28;20036;-73
2022/04/14 07:05:56;;;;;;;22.80;11.02;;;;;;;14.58;83.72;100558.47;5112987;28;20457;-73
2022/04/14 07:08:24;;;;;;;18.63;10.48;;;;;;;14.71;81.75;100567.66;5112784;28;20050;-73
2022/04/14 07:10:51;;;;;;;20.05;12.20;;;;;;;14.86;81.30;100561.19;5112947;28;20032;-73
2022/04/14 07:13:17;;;;;;;28.33;12.60;;;;;;;14.97;80.63;100564.38;5112273;28;20118;-74
2022/04/14 07:15:43;;;;;;;17.13;11.80;;;;;;;15.13;80.59;100566.78;5111517;28;20066;-73
2022/04/14 07:18:09;;;;;;;22.90;13.40;;;;;;;15.22;80.55;100567.47;5112681;28;20433;-73
2022/04/14 07:20:35;;;;;;;22.52;13.35;;;;;;;15.35;82.14;100557.66;5111293;28;20063;-75
2022/04/14 07:23:03;;;;;;;27.52;14.23;;;;;;;15.50;79.13;100567.44;5111885;27;20472;-73
2022/04/14 07:25:32;;;;;;;29.25;15.95;;;;;;;15.58;79.21;100575.31;5112541;28;20046;-72
2022/04/14 07:27:59;;;;;;;34.15;17.13;;;;;;;15.72;80.79;100579.78;5111473;28;20039;-73
2022/04/14 07:30:26;;;;;;;29.42;17.30;;;;;;;15.82;77.69;100574.03;5094218;28;20046;-74
2022/04/14 07:32:54;;;;;;;26.38;15.25;;;;;;;15.93;76.66;100579.69;5112255;28;20408;-73
2022/04/14 07:35:22;;;;;;;29.52;16.80;;;;;;;16.02;76.02;100574.94;5111334;28;20086;-72
2022/04/14 07:37:51;;;;;;;24.00;15.38;;;;;;;16.23;79.76;100574.81;5111351;28;20066;-74
2022/04/14 07:40:17;;;;;;;29.15;16.70;;;;;;;16.39;75.85;100579.00;5111944;28;20388;-73
2022/04/14 07:42:47;;;;;;;23.55;16.42;;;;;;;16.63;73.20;100584.84;5111639;28;20063;-72
2022/04/14 07:45:15;;;;;;;26.25;16.83;;;;;;;16.64;76.28;100575.75;5112114;28;20498;-73
2022/04/14 07:47:45;;;;;;;25.75;16.75;;;;;;;16.74;73.91;100586.94;5112159;28;20476;-72
2022/04/14 07:50:12;;;;;;;29.00;16.67;;;;;;;16.66;73.20;100579.88;5111993;28;20039;-73
2022/04/14 07:52:52;;;;;;;30.85;18.15;;;;;;;16.69;71.83;100578.63;5110233;28;20054;-72
2022/04/14 07:55:21;;;;;;;28.48;16.17;;;;;;;16.78;74.59;100578.28;5111759;28;20520;-74
2022/04/14 07:57:48;;;;;;;28.02;16.33;;;;;;;16.86;71.21;100582.63;5112285;28;20357;-74
2022/04/14 08:00:15;;;;;;;28.23;17.37;;;;;;;16.85;71.73;100588.22;5112553;28;20030;-73
2022/04/14 08:02:53;;;;;;;24.52;15.32;;;;;;;16.92;70.71;100584.50;5112374;28;20244;-73
2022/04/14 08:05:26;;;;;;;23.23;16.20;;;;;;;16.98;71.59;100585.53;5112140;28;20501;-72
2022/04/14 08:07:52;;;;;;;25.30;15.73;;;;;;;17.09;73.04;100587.59;5112104;28;20036;-73
2022/04/14 08:10:18;;;;;;;28.75;16.95;;;;;;;17.03;70.51;100577.66;5112036;28;20038;-72
2022/04/14 08:12:44;;;;;;;27.30;16.30;;;;;;;17.30;70.58;100586.53;5111691;28;20035;-72
2022/04/14 08:15:12;;;;;;;30.65;16.85;;;;;;;17.44;68.78;100588.19;5110711;28;20488;-71
2022/04/14 08:17:42;;;;;;;28.20;15.82;;;;;;;17.58;71.79;100587.09;5111989;28;20031;-72
2022/04/14 08:20:10;;;;;;;32.60;17.25;;;;;;;17.72;68.39;100590.63;5111934;28;20039;-72
2022/04/14 08:22:48;;;;;;;;;;;;;;;17.97;71.21;100589.94;5112224;28;20058;-72
2022/04/14 08:25:15;;;;;;;31.02;17.45;;;;;;;17.98;70.53;100586.19;5111717;28;19935;-72
2022/04/14 08:27:41;;;;;;;30.05;17.05;;;;;;;17.88;70.05;100583.97;5111804;28;20119;-72
2022/04/14 08:30:08;;;;;;;34.03;17.90;;;;;;;18.15;67.48;100592.75;5111849;28;20110;-72
2022/04/14 08:32:35;;;;;;;34.20;18.40;;;;;;;18.27;68.26;100590.22;5111555;28;20494;-71
2022/04/14 08:35:10;;;;;;;25.40;16.27;;;;;;;18.63;65.66;100589.59;5111858;28;20039;-71
2022/04/14 08:37:36;;;;;;;25.40;16.88;;;;;;;18.75;64.40;100585.19;5111941;28;20111;-73
2022/04/14 08:40:05;;;;;;;27.40;16.75;;;;;;;18.64;64.19;100581.25;5111906;28;20429;-72
2022/04/14 08:42:38;;;;;;;25.10;16.73;;;;;;;18.68;64.50;100592.50;5111581;28;20035;-73
2022/04/14 08:45:05;;;;;;;31.23;18.10;;;;;;;18.64;65.82;100586.66;5110666;28;20092;-72
2022/04/14 08:47:34;;;;;;;;;;;;;;;18.58;66.96;100584.84;5110785;28;20032;-72
2022/04/14 08:50:00;;;;;;;27.77;17.40;;;;;;;18.82;65.44;100594.03;5111672;28;20010;-72
2022/04/14 08:52:26;;;;;;;26.70;17.88;;;;;;;18.95;65.84;100585.03;5111311;28;20059;-72
2022/04/14 08:54:54;;;;;;;26.58;16.63;;;;;;;18.86;65.85;100587.19;5112070;28;20086;-73
2022/04/14 08:57:21;;;;;;;23.17;16.10;;;;;;;19.01;65.67;100578.75;5111639;28;20414;-72
2022/04/14 08:59:49;;;;;;;23.40;16.23;;;;;;;19.22;62.14;100586.44;5111782;28;20036;-72
2022/04/14 09:02:18;;;;;;;27.65;15.48;;;;;;;19.23;62.48;100579.16;5110654;28;20114;-73
2022/04/14 09:04:44;;;;;;;26.60;17.00;;;;;;;19.23;61.73;100576.47;5111354;28;20032;-72
2022/04/14 09:07:11;;;;;;;25.75;16.45;;;;;;;19.01;65.18;100589.53;5111574;28;20038;-72
2022/04/14 09:09:38;;;;;;;34.00;18.43;;;;;;;18.86;65.51;100578.25;5115334;28;20070;-72
2022/04/14 09:12:05;;;;;;;28.90;16.63;;;;;;;18.92;63.35;100580.91;5113829;28;20032;-72
2022/04/14 09:14:34;;;;;;;28.58;17.58;;;;;;;18.72;64.15;100584.81;5115157;28;20109;-72
2022/04/14 09:17:09;;;;;;;33.28;18.10;;;;;;;18.55;66.21;100590.66;5113919;28;20036;-72
2022/04/14 09:19:36;;;;;;;31.27;18.55;;;;;;;18.68;66.21;100596.00;5115072;28;20085;-73
2022/04/14 09:22:03;;;;;;;30.67;19.37;;;;;;;18.88;65.06;100590.47;5114758;28;20147;-72
2022/04/14 09:24:45;;;;;;;30.30;17.30;;;;;;;19.10;66.06;100585.50;5113827;28;20032;-73
2022/04/14 09:27:28;;;;;;;27.67;17.48;;;;;;;19.22;62.53;100597.25;5113728;28;20036;-72
2022/04/14 09:30:03;;;;;;;33.58;18.83;;;;;;;18.95;64.39;100590.41;5114771;28;20039;-72
2022/04/14 09:32:39;;;;;;;29.00;18.38;;;;;;;18.95;66.44;100593.13;5114575;28;20027;-72
2022/04/14 09:35:15;;;;;;;29.85;17.85;;;;;;;19.33;65.01;100593.00;5114810;28;20044;-73
2022/04/14 09:37:41;;;;;;;29.13;17.50;;;;;;;19.64;66.14;100585.88;5114921;28;20091;-73
2022/04/14 09:40:08;;;;;;;30.10;17.15;;;;;;;20.11;61.08;100595.09;5114698;28;20051;-73
2022/04/14 09:42:39;;;;;;;28.02;17.30;;;;;;;20.55;57.81;100596.59;5114304;28;20188;-72
2022/04/14 09:45:25;;;;;;;30.90;16.75;;;;;;;20.97;58.13;100593.88;5114711;28;20039;-73
2022/04/14 09:48:10;;;;;;;32.50;18.45;;;;;;;20.50;59.17;100591.06;5113493;28;20031;-72
2022/04/14 09:50:40;;;;;;;35.03;18.10;;;;;;;20.82;57.38;100599.72;5113434;28;20028;-72
2022/04/14 09:53:12;;;;;;;33.20;18.20;;;;;;;20.56;60.66;100592.84;5114357;28;20032;-72
2022/04/14 09:55:38;;;;;;;31.27;18.55;;;;;;;20.31;59.59;100592.13;5113249;28;20043;-73
2022/04/14 09:58:24;;;;;;;28.55;17.80;;;;;;;20.15;60.74;100593.59;5114590;28;20106;-72
2022/04/14 10:00:49;;;;;;;32.50;18.73;;;;;;;20.12;60.56;100594.03;5114316;28;20034;-72
2022/04/14 10:03:20;;;;;;;32.03;18.63;;;;;;;20.33;60.95;100588.13;5114182;28;20027;-73
2022/04/14 10:05:49;;;;;;;34.97;18.50;;;;;;;20.69;61.89;100596.41;5113021;28;20063;-73
2022/04/14 10:08:16;;;;;;;30.23;17.10;;;;;;;20.94;59.11;100598.94;5113161;28;20110;-73
2022/04/14 10:10:46;;;;;;;33.33;19.88;;;;;;;20.86;58.00;100603.63;5114228;28;20120;-73
2022/04/14 10:13:15;;;;;;;34.35;20.55;;;;;;;20.93;58.75;100599.97;5114081;28;20036;-73
2022/04/14 10:15:44;;;;;;;32.95;19.20;;;;;;;21.30;57.09;100604.19;5114309;28;20035;-73
2022/04/14 10:18:12;;;;;;;29.55;18.33;;;;;;;21.65;56.35;100608.78;5114138;28;20034;-73
2022/04/14 10:20:40;;;;;;;34.40;20.50;;;;;;;22.11;55.78;100604.34;5113921;28;20046;-73
2022/04/14 10:23:07;;;;;;;;;;;;;;;22.95;53.27;100599.97;5114399;28;20032;-73
2022/04/14 10:25:36;;;;;;;25.45;16.50;;;;;;;23.10;50.96;100606.72;5112724;28;20014;-72
2022/04/14 10:28:03;;;;;;;28.63;18.75;;;;;;;23.08;51.90;100604.22;5113885;28;20454;-72
2022/04/14 10:30:29;;;;;;;30.20;18.48;;;;;;;22.93;49.95;100599.38;5113858;28;20411;-72
2022/04/14 10:32:56;;;;;;;26.80;16.80;;;;;;;23.28;52.49;100601.84;5112102;28;20048;-72
2022/04/14 10:35:25;;;;;;;26.90;17.92;;;;;;;23.61;50.57;100596.63;5114151;28;20456;-72
2022/04/14 10:38:04;;;;;;;32.80;19.85;;;;;;;23.66;49.00;100596.69;5095493;28;20035;-72
2022/04/14 10:40:32;;;;;;;37.97;21.55;;;;;;;22.86;52.21;100608.72;5113685;28;20024;-71
2022/04/14 10:42:58;;;;;;;34.67;20.83;;;;;;;23.64;48.13;100601.56;5113220;28;20032;-72
2022/04/14 10:45:24;;;;;;;28.88;18.75;;;;;;;23.83;49.25;100611.91;5113576;28;20036;-72
2022/04/14 10:47:50;;;;;;;34.30;20.80;;;;;;;24.06;47.58;100610.00;5113529;28;20545;-72
2022/04/14 10:50:44;;;;;;;34.63;20.30;;;;;;;24.67;47.23;100613.44;5113595;28;20503;-74
2022/04/14 10:53:19;;;;;;;37.17;22.30;;;;;;;24.12;49.21;100605.44;5103712;28;20048;-73
2022/04/14 10:55:47;;;;;;;30.35;19.30;;;;;;;24.74;46.95;100610.50;5112184;28;20031;-73
2022/04/14 10:58:40;;;;;;;30.63;20.55;;;;;;;23.60;47.80;100616.69;5095442;28;20438;-74
2022/04/14 11:01:11;;;;;;;34.95;18.98;;;;;;;24.15;48.68;100613.94;5111945;28;20092;-72
2022/04/14 11:03:54;;;;;;;36.90;21.45;;;;;;;23.68;49.45;100617.13;5113131;28;20039;-72
2022/04/14 11:06:41;;;;;;;33.53;19.90;;;;;;;24.95;44.66;100609.59;5113088;28;20118;-72
2022/04/14 11:09:08;;;;;;;36.20;21.15;;;;;;;25.19;43.18;100606.56;5113163;28;20473;-73
2022/04/14 11:11:59;;;;;;;37.33;21.35;;;;;;;24.24;47.03;100614.28;5112914;28;20028;-73
2022/04/14 11:14:25;;;;;;;31.42;19.42;;;;;;;24.23;46.67;100613.47;5113149;28;20036;-72
2022/04/14 11:16:52;;;;;;;39.60;21.60;;;;;;;24.10;46.67;100611.13;5111580;28;20089;-72
2022/04/14 11:19:26;;;;;;;40.78;20.08;;;;;;;24.65;45.91;100601.97;5113022;28;20036;-72
2022/04/14 11:22:01;;;;;;;32.80;20.83;;;;;;;24.74;43.91;100611.31;5112433;28;20042;-73
2022/04/14 11:24:36;;;;;;;37.17;21.73;;;;;;;24.01;47.22;100609.94;5112668;28;20438;-72
2022/04/14 11:27:17;;;;;;;36.78;23.10;;;;;;;24.36;48.30;100606.84;5112816;28;20055;-73
2022/04/14 11:29:57;;;;;;;41.92;21.00;;;;;;;25.00;46.50;100598.75;5112554;28;20024;-74
2022/04/14 11:32:37;;;;;;;37.83;21.55;;;;;;;24.78;47.32;100596.13;5111294;28;20028;-74
2022/04/14 11:35:16;;;;;;;31.55;18.75;;;;;;;25.33;44.71;100605.00;5112552;28;20032;-73
2022/04/14 11:37:49;;;;;;;43.63;21.15;;;;;;;25.02;44.90;100595.75;5112787;28;20031;-79
2022/04/14 11:40:22;;;;;;;37.95;21.58;;;;;;;24.82;44.26;100590.97;5113284;28;20063;-76
2022/04/14 11:42:54;;;;;;;34.92;21.20;;;;;;;25.36;42.98;100597.13;5112879;28;20676;-77
2022/04/14 11:45:28;;;;;;;39.22;20.48;;;;;;;25.26;42.57;100593.53;5111292;28;20373;-78
2022/04/14 11:48:00;;;;;;;37.63;23.95;;;;;;;24.50;43.49;100590.91;5115180;28;20039;-77
2022/04/14 11:50:28;;;;;;;45.33;24.88;;;;;;;24.50;44.27;100594.47;5111750;28;20039;-76
2022/04/14 11:52:57;;;;;;;48.58;23.67;;;;;;;24.20;44.27;100588.69;5112395;28;20024;-74
2022/04/14 11:55:40;;;;;;;38.17;21.75;;;;;;;24.92;42.38;100579.34;5112417;28;20043;-74
2022/04/14 11:58:06;;;;;;;40.33;23.17;;;;;;;24.04;43.53;100591.22;5112349;28;20365;-75
2022/04/14 12:00:45;;;;;;;40.88;20.55;;;;;;;24.78;42.86;100584.41;5112421;28;20042;-73
2022/04/14 12:03:12;;;;;;;39.20;21.70;;;;;;;25.07;41.43;100585.75;5111943;28;20039;-72
2022/04/14 12:05:40;;;;;;;42.17;22.17;;;;;;;23.98;48.15;100592.22;5112213;28;20152;-74
2022/04/14 12:08:10;;;;;;;;;;;;;;;24.27;45.48;100590.13;5111110;28;20036;-73
2022/04/14 12:10:35;;;;;;;39.35;22.58;;;;;;;24.04;44.76;100588.47;5111819;28;20290;-72
2022/04/14 12:13:08;;;;;;;36.00;22.83;;;;;;;25.05;44.97;100589.81;5111786;28;20039;-74
2022/04/14 12:15:35;;;;;;;41.65;22.27;;;;;;;24.77;45.52;100589.00;5111922;28;20042;-75
2022/04/14 12:18:08;;;;;;;35.83;19.42;;;;;;;25.36;42.98;100578.03;5112083;28;20138;-75
2022/04/14 12:20:36;;;;;;;40.25;22.13;;;;;;;25.29;41.40;100576.63;5111940;28;20034;-75
2022/04/14 12:23:02;;;;;;;39.83;19.05;;;;;;;25.20;44.35;100578.22;5111655;28;20520;-73
2022/04/14 12:25:28;;;;;;;38.90;21.33;;;;;;;25.99;40.07;100580.84;5110638;28;20035;-72
2022/04/14 12:27:54;;;;;;;40.95;22.90;;;;;;;26.11;39.61;100575.97;5111990;28;20112;-72
2022/04/14 12:30:22;;;;;;;41.00;22.23;;;;;;;24.77;42.28;100574.56;5110810;28;20064;-74
2022/04/14 12:32:48;;;;;;;36.63;23.27;;;;;;;24.40;44.99;100574.50;5111468;28;20039;-74
2022/04/14 12:35:37;;;;;;;53.80;24.45;;;;;;;22.92;48.96;100572.47;5111723;28;20032;-74
2022/04/14 12:38:13;;;;;;;40.70;20.45;;;;;;;23.86;47.89;100561.59;5111679;28;20028;-73
2022/04/14 12:40:55;;;;;;;35.40;20.58;;;;;;;25.01;44.58;100566.88;5111696;28;20044;-74
2022/04/14 12:43:37;;;;;;;38.63;21.48;;;;;;;24.03;46.63;100567.81;5113853;28;20122;-74
2022/04/14 12:46:36;;;;;;;36.03;21.08;;;;;;;23.49;47.19;100564.91;5115821;28;20036;-74
2022/04/14 12:49:21;;;;;;;36.90;20.90;;;;;;;23.82;48.14;100568.63;5081720;28;20044;-73
2022/04/14 12:52:01;;;;;;;29.58;17.98;;;;;;;25.13;43.90;100564.81;5098114;28;20051;-75
2022/04/14 12:54:27;;;;;;;37.50;19.02;;;;;;;25.58;42.08;100561.53;5115774;28;20122;-74
2022/04/14 12:57:06;;;;;;;37.63;19.25;;;;;;;25.04;43.44;100564.47;5115643;28;20114;-74
2022/04/14 12:59:36;;;;;;;37.42;18.92;;;;;;;24.21;43.30;100554.94;5114360;28;20031;-75
2022/04/14 13:02:02;;;;;;;28.77;17.15;;;;;;;24.64;44.29;100557.56;5114079;28;20059;-74
2022/04/14 13:04:44;;;;;;;31.00;16.60;;;;;;;25.16;43.47;100558.81;5115916;28;20035;-74
2022/04/14 13:07:12;;;;;;;26.50;15.02;;;;;;;25.85;39.66;100555.16;5115325;28;20400;-73
2022/04/14 13:09:40;;;;;;;31.85;16.63;;;;;;;26.04;39.14;100552.75;5115385;28;20036;-75
2022/04/14 13:12:08;;;;;;;31.23;16.58;;;;;;;25.38;40.26;100545.91;5114920;28;20047;-74
2022/04/14 13:14:45;;;;;;;25.02;14.32;;;;;;;26.23;39.71;100546.53;5115216;28;20039;-75
2022/04/14 13:17:10;;;;;;;28.17;16.60;;;;;;;25.37;42.32;100546.16;5115658;28;20118;-73
2022/04/14 13:19:36;;;;;;;29.40;14.48;;;;;;;25.57;43.59;100553.63;5113966;28;20425;-75
2022/04/14 13:22:02;;;;;;;29.85;14.00;;;;;;;25.55;41.31;100545.69;5114958;28;20080;-74
2022/04/14 13:24:28;;;;;;;25.95;15.48;;;;;;;24.58;44.03;100550.44;5115158;28;20035;-73
2022/04/14 13:26:56;;;;;;;33.97;16.13;;;;;;;24.81;44.44;100551.19;5114974;28;20036;-74
2022/04/14 13:29:22;;;;;;;29.90;16.35;;;;;;;25.08;43.11;100551.97;5115014;28;20036;-73
2022/04/14 13:31:53;;;;;;;29.10;16.63;;;;;;;23.64;45.68;100547.19;5113264;28;20496;-73
2022/04/14 13:34:19;;;;;;;25.05;15.27;;;;;;;23.57;46.72;100547.34;5114866;28;20046;-74
2022/04/14 13:36:45;;;;;;;24.30;14.73;;;;;;;23.33;48.33;100554.88;5114778;28;20027;-74
2022/04/14 13:39:11;;;;;;;26.67;14.85;;;;;;;23.45;45.49;100563.75;5114757;28;20059;-72
2022/04/14 13:41:37;;;;;;;24.42;13.85;;;;;;;24.01;42.99;100552.81;5114584;28;20074;-72
2022/04/14 13:44:04;;;;;;;28.58;15.40;;;;;;;23.19;47.38;100556.31;5114505;28;20027;-72
2022/04/14 13:46:30;;;;;;;23.13;12.60;;;;;;;24.39;44.22;100549.19;5114725;28;20119;-71
2022/04/14 13:48:55;;;;;;;25.52;16.05;;;;;;;24.36;44.24;100545.06;5096403;28;20059;-72
2022/04/14 13:51:21;;;;;;;29.67;13.48;;;;;;;24.82;41.76;100548.19;5114415;28;20071;-73
2022/04/14 13:53:47;;;;;;;23.08;11.15;;;;;;;24.22;44.50;100545.69;5113828;28;20031;-72
2022/04/14 13:56:13;;;;;;;25.25;12.88;;;;;;;24.08;43.09;100542.56;5114364;28;20040;-72
2022/04/14 13:58:39;;;;;;;23.92;13.05;;;;;;;24.20;43.20;100539.69;5114620;28;20032;-73
2022/04/14 14:01:06;;;;;;;23.55;12.30;;;;;;;24.19;43.48;100538.03;5114401;28;20488;-73
2022/04/14 14:03:33;;;;;;;24.67;13.13;;;;;;;23.10;43.90;100550.50;5112686;28;20370;-72
2022/04/14 14:06:00;;;;;;;22.20;12.73;;;;;;;23.12;45.80;100542.09;5114249;28;20032;-73
2022/04/14 14:08:28;;;;;;;30.02;14.25;;;;;;;22.72;45.95;100540.34;5114052;28;20058;-73
2022/04/14 14:10:54;;;;;;;21.63;12.43;;;;;;;22.69;46.55;100540.81;5114187;28;20122;-73
2022/04/14 14:13:20;;;;;;;25.17;11.63;;;;;;;22.96;46.74;100539.13;5113851;28;20049;-73
2022/04/14 14:15:46;;;;;;;20.67;11.38;;;;;;;23.17;44.33;100534.00;5114100;28;20035;-73
2022/04/14 14:18:12;;;;;;;24.65;11.18;;;;;;;22.48;45.86;100529.59;5114118;28;20049;-73
2022/04/14 14:20:39;;;;;;;30.77;16.73;;;;;;;22.69;46.00;100525.38;5113871;28;20055;-72
2022/04/14 14:23:05;;;;;;;19.45;9.63;;;;;;;22.58;48.40;100533.59;5113692;28;20404;-72
2022/04/14 14:25:32;;;;;;;27.63;12.55;;;;;;;22.48;47.99;100529.59;5112530;28;20035;-73
2022/04/14 14:27:58;;;;;;;17.35;10.05;;;;;;;22.78;47.61;100538.53;5113845;28;20059;-73
2022/04/14 14:30:24;;;;;;;19.17;10.93;;;;;;;22.24;47.02;100538.13;5113765;27;20451;-73
2022/04/14 14:32:49;;;;;;;17.75;9.82;;;;;;;22.12;49.08;100533.56;5113311;27;20108;-73
2022/04/14 14:35:15;;;;;;;21.55;9.93;;;;;;;22.19;48.57;100536.97;5113486;28;20078;-72
2022/04/14 14:37:44;;;;;;;22.35;10.73;;;;;;;22.14;48.45;100541.47;5113863;28;20098;-73
2022/04/14 14:40:12;;;;;;;18.85;9.25;;;;;;;22.27;47.81;100543.88;5114006;28;20031;-73
2022/04/14 14:42:38;;;;;;;23.70;9.85;;;;;;;22.59;46.83;100546.09;5113800;28;20053;-73
2022/04/14 14:45:04;;;;;;;24.70;11.73;;;;;;;22.34;48.01;100543.72;5114248;28;20027;-72
2022/04/14 14:47:30;;;;;;;22.87;10.07;;;;;;;22.47;48.67;100538.81;5113642;28;20059;-74
2022/04/14 14:49:56;;;;;;;20.17;11.10;;;;;;;22.61;47.60;100542.03;5113393;28;20523;-73
2022/04/14 14:52:22;;;;;;;22.58;10.25;;;;;;;22.58;48.09;100547.16;5112925;28;20040;-73
2022/04/14 14:54:48;;;;;;;16.90;10.18;;;;;;;22.37;47.58;100548.69;5113201;28;20111;-73
2022/04/14 14:57:13;;;;;;;19.48;10.25;;;;;;;22.15;50.06;100543.09;5111853;28;20118;-73
2022/04/14 14:59:39;;;;;;;17.27;9.82;;;;;;;22.54;48.47;100540.56;5113213;28;20067;-73
2022/04/14 15:02:05;;;;;;;21.55;10.95;;;;;;;22.35;48.37;100540.78;5113127;28;20490;-73
2022/04/14 15:04:30;;;;;;;25.90;13.20;;;;;;;21.53;50.05;100545.63;5111408;28;20077;-73
2022/04/14 15:06:56;;;;;;;24.67;13.20;;;;;;;21.92;49.10;100549.44;5112426;28;20115;-73
2022/04/14 15:09:22;;;;;;;24.20;12.95;;;;;;;22.17;46.84;100554.56;5094744;28;20453;-72
2022/04/14 15:11:48;;;;;;;22.20;10.63;;;;;;;22.16;47.63;100553.72;5112641;28;20044;-73
2022/04/14 15:14:14;;;;;;;31.02;14.32;;;;;;;21.49;50.20;100558.00;5112999;28;20058;-73
2022/04/14 15:16:41;;;;;;;28.80;15.20;;;;;;;21.67;49.40;100564.09;5125661;27;20031;-73
2022/04/14 15:19:07;;;;;;;24.27;12.63;;;;;;;21.52;48.32;100558.34;5133568;27;20106;-72
2022/04/14 15:21:33;;;;;;;21.50;11.30;;;;;;;21.76;48.40;100566.44;5133218;27;20030;-70
2022/04/14 15:23:59;;;;;;;22.35;12.32;;;;;;;21.61;49.45;100569.66;5133354;27;20043;-72
2022/04/14 15:26:25;;;;;;;20.70;11.63;;;;;;;21.44;50.14;100568.72;5131893;27;20054;-72
2022/04/14 15:28:52;;;;;;;23.98;13.43;;;;;;;21.39;48.75;100570.25;5133509;27;20035;-70
2022/04/14 15:31:19;;;;;;;21.27;12.52;;;;;;;21.03;51.34;100582.09;5133210;27;20031;-72
2022/04/14 15:33:45;;;;;;;23.27;10.32;;;;;;;21.07;50.76;100575.16;5132966;27;20454;-70
2022/04/14 15:36:11;;;;;;;26.38;13.50;;;;;;;20.91;50.19;100581.25;5132129;27;20381;-71
2022/04/14 15:38:38;;;;;;;22.45;11.73;;;;;;;20.59;52.39;100580.72;5133004;27;20045;-72
2022/04/14 15:41:05;;;;;;;26.70;11.45;;;;;;;20.58;51.45;100598.00;5131724;27;20041;-72